Time;durP1;ratioP1;P1;durP2;ratioP2;P2;SDS_P1;SDS_P2;PMS_P1;PMS_P2;Temp;Humidity;BMP_temperature;BMP_pressure;BME280_temperature;BME280_humidity;BME280_pressure;Samples;Min_cycle;Max_cycle;Signal;HPM_P1;HPM_P2
2022/01/07 00:01:06;;;;;;;8.33;4.50;;;12.80;79.20;;;;;;1891486;76;21008;-46
2022/01/07 00:03:36;;;;;;;11.65;5.62;;;12.70;79.00;;;;;;1891660;76;21031;-47
2022/01/07 00:06:05;;;;;;;8.00;5.22;;;12.80;78.80;;;;;;1891540;76;21099;-46
2022/01/07 00:08:35;;;;;;;9.00;5.50;;;12.80;78.50;;;;;;1891738;76;21111;-45
2022/01/07 00:11:04;;;;;;;7.90;5.10;;;12.80;78.20;;;;;;1891707;76;21036;-46
2022/01/07 00:13:33;;;;;;;10.15;5.08;;;12.80;78.10;;;;;;1891786;76;21117;-46
2022/01/07 00:16:04;;;;;;;6.17;4.60;;;12.80;78.00;;;;;;1891724;76;21102;-45
2022/01/07 00:18:33;;;;;;;8.30;3.95;;;12.80;77.80;;;;;;1891749;76;21102;-45
2022/01/07 00:21:03;;;;;;;9.28;4.40;;;12.90;77.50;;;;;;1891579;76;21089;-46
2022/01/07 00:23:32;;;;;;;7.37;5.10;;;12.90;77.30;;;;;;1891607;76;21036;-44
2022/01/07 00:26:01;;;;;;;4.78;3.87;;;12.90;77.30;;;;;;1891638;75;21048;-45
2022/01/07 00:28:31;;;;;;;10.10;5.80;;;13.00;77.30;;;;;;1891676;76;21040;-46
2022/01/07 00:31:00;;;;;;;12.25;4.45;;;12.90;77.20;;;;;;1891660;76;21161;-44
2022/01/07 00:33:30;;;;;;;8.43;5.17;;;12.90;77.20;;;;;;1891587;74;21032;-45
2022/01/07 00:35:59;;;;;;;7.72;5.10;;;12.90;77.30;;;;;;1891699;76;21028;-45
2022/01/07 00:38:30;;;;;;;7.90;4.50;;;12.90;77.40;;;;;;1891653;75;21036;-45
2022/01/07 00:40:59;;;;;;;12.70;5.35;;;12.90;77.40;;;;;;1891556;76;21482;-45
2022/01/07 00:43:29;;;;;;;7.78;4.25;;;12.90;77.40;;;;;;1891730;74;21024;-44
2022/01/07 00:45:58;;;;;;;5.22;3.60;;;12.90;77.30;;;;;;1891564;76;21129;-44
2022/01/07 00:48:29;;;;;;;5.28;4.53;;;12.80;77.20;;;;;;1891642;76;21028;-45
2022/01/07 00:50:58;;;;;;;9.28;5.40;;;12.90;77.30;;;;;;1891864;76;21048;-44
2022/01/07 00:53:28;;;;;;;7.10;4.25;;;12.90;77.20;;;;;;1891629;76;21035;-44
2022/01/07 00:55:57;;;;;;;9.35;5.00;;;12.90;77.10;;;;;;1891726;76;21111;-45
2022/01/07 00:58:26;;;;;;;9.70;4.95;;;12.90;77.20;;;;;;1891835;76;21354;-46
2022/01/07 01:00:55;;;;;;;7.33;4.92;;;12.90;77.20;;;;;;1891703;75;21031;-45
2022/01/07 01:03:25;;;;;;;7.00;4.33;;;12.90;77.80;;;;;;1891696;75;21102;-46
2022/01/07 01:05:57;;;;;;;6.28;4.53;;;12.80;77.20;;;;;;1891723;76;21093;-48
2022/01/07 01:08:25;;;;;;;9.70;4.80;;;12.80;77.30;;;;;;1891560;75;21109;-44
2022/01/07 01:10:55;;;;;;;8.13;4.72;;;12.80;77.30;;;;;;1891584;76;21036;-45
2022/01/07 01:13:26;;;;;;;7.53;4.55;;;12.80;77.30;;;;;;1891577;76;21118;-45
2022/01/07 01:15:55;;;;;;;6.33;4.42;;;12.80;77.30;;;;;;1891717;76;21039;-45
2022/01/07 01:18:25;;;;;;;7.08;4.85;;;12.80;77.30;;;;;;1891650;76;21059;-47
2022/01/07 01:20:54;;;;;;;10.10;4.75;;;12.80;77.20;;;;;;1891696;75;21031;-47
2022/01/07 01:23:23;;;;;;;7.67;4.47;;;12.80;77.20;;;;;;1891678;76;21089;-44
2022/01/07 01:25:53;;;;;;;4.87;4.25;;;12.70;77.10;;;;;;1891665;76;21139;-45
2022/01/07 01:28:22;;;;;;;6.75;4.62;;;12.70;76.80;;;;;;1891602;76;21051;-45
2022/01/07 01:30:52;;;;;;;6.50;4.47;;;12.70;76.70;;;;;;1891655;76;21024;-45
2022/01/07 01:33:21;;;;;;;9.40;3.87;;;12.80;76.70;;;;;;1891692;76;21075;-46
2022/01/07 01:35:51;;;;;;;7.62;4.03;;;12.70;76.30;;;;;;1891567;76;21032;-45
2022/01/07 01:38:20;;;;;;;5.08;3.42;;;12.70;76.20;;;;;;1891553;76;21083;-47
2022/01/07 01:40:50;;;;;;;7.08;4.45;;;12.80;75.80;;;;;;1891550;76;21087;-44
2022/01/07 01:43:19;;;;;;;6.03;3.22;;;12.80;76.00;;;;;;1891518;76;21028;-44
2022/01/07 01:45:49;;;;;;;7.67;4.17;;;12.80;75.60;;;;;;1891596;74;21157;-45
2022/01/07 01:48:20;;;;;;;9.45;4.75;;;12.80;75.50;;;;;;1891577;75;21035;-45
2022/01/07 01:50:50;;;;;;;7.92;3.35;;;12.90;75.20;;;;;;1891720;76;21122;-44
2022/01/07 01:53:19;;;;;;;5.90;3.25;;;12.90;75.00;;;;;;1891736;76;21110;-45
2022/01/07 01:55:49;;;;;;;8.48;4.05;;;12.90;74.40;;;;;;1891619;76;21031;-45
2022/01/07 01:58:19;;;;;;;7.53;3.95;;;13.00;74.30;;;;;;1891651;76;21117;-47
2022/01/07 02:00:48;;;;;;;3.77;2.75;;;13.00;74.20;;;;;;1891611;76;21047;-45
2022/01/07 02:03:17;;;;;;;4.70;3.15;;;13.00;74.00;;;;;;1891509;76;21027;-44
2022/01/07 02:05:46;;;;;;;7.25;3.67;;;13.00;73.90;;;;;;1891578;75;21423;-45
2022/01/07 02:08:16;;;;;;;3.35;2.52;;;13.00;73.80;;;;;;1891606;76;21032;-45
2022/01/07 02:10:45;;;;;;;5.28;3.12;;;13.00;73.70;;;;;;1891577;76;21031;-45
2022/01/07 02:13:16;;;;;;;5.87;4.10;;;13.00;73.80;;;;;;1891531;76;21036;-44
2022/01/07 02:15:46;;;;;;;6.25;4.20;;;13.00;73.90;;;;;;1891530;76;21028;-45
2022/01/07 02:18:19;;;;;;;7.80;3.87;;;13.00;74.10;;;;;;1891586;76;21004;-46
2022/01/07 02:20:49;;;;;;;5.55;3.52;;;12.90;73.80;;;;;;1891649;76;21016;-45
2022/01/07 02:23:19;;;;;;;6.92;3.67;;;13.00;74.00;;;;;;1891649;76;21487;-47
2022/01/07 02:25:49;;;;;;;8.05;4.50;;;12.90;74.10;;;;;;1891666;76;21035;-45
2022/01/07 02:28:19;;;;;;;4.40;3.17;;;12.90;74.10;;;;;;1891573;76;21028;-45
2022/01/07 02:30:48;;;;;;;7.33;4.15;;;12.90;74.00;;;;;;1891525;76;21086;-45
2022/01/07 02:33:17;;;;;;;5.97;3.90;;;12.80;74.10;;;;;;1891713;76;21095;-45
2022/01/07 02:35:47;;;;;;;8.58;3.90;;;12.80;74.10;;;;;;1891723;75;21036;-44
2022/01/07 02:38:16;;;;;;;8.80;3.98;;;12.80;74.20;;;;;;1891694;76;21024;-45
2022/01/07 02:40:46;;;;;;;7.17;3.98;;;12.80;74.30;;;;;;1891569;76;21095;-45
2022/01/07 02:43:15;;;;;;;7.17;4.12;;;12.80;74.40;;;;;;1891541;76;21071;-46
2022/01/07 02:45:44;;;;;;;10.38;4.17;;;12.70;74.40;;;;;;1891589;76;21008;-44
2022/01/07 02:48:14;;;;;;;6.30;3.25;;;12.70;74.60;;;;;;1891564;76;21028;-45
2022/01/07 02:50:43;;;;;;;5.65;3.35;;;12.70;74.80;;;;;;1891575;76;21039;-44
2022/01/07 02:53:13;;;;;;;6.25;3.87;;;12.70;74.90;;;;;;1891536;76;21020;-44
2022/01/07 02:55:42;;;;;;;4.58;3.55;;;12.70;75.10;;;;;;1891629;76;21039;-44
2022/01/07 02:58:12;;;;;;;7.72;4.33;;;12.60;75.10;;;;;;1891559;76;21036;-44
2022/01/07 03:00:41;;;;;;;6.22;3.75;;;12.60;75.20;;;;;;1891515;76;21027;-46
2022/01/07 03:03:11;;;;;;;4.67;3.37;;;12.60;75.40;;;;;;1891510;75;21047;-44
2022/01/07 03:05:41;;;;;;;8.00;3.83;;;12.60;75.50;;;;;;1891497;76;21012;-45
2022/01/07 03:08:11;;;;;;;8.00;3.55;;;12.60;75.50;;;;;;1891634;76;21105;-46
2022/01/07 03:10:40;;;;;;;5.67;3.70;;;12.50;75.70;;;;;;1891607;76;21039;-45
2022/01/07 03:13:10;;;;;;;5.87;3.47;;;12.50;75.60;;;;;;1891536;76;21043;-45
2022/01/07 03:15:40;;;;;;;6.72;3.72;;;12.50;75.70;;;;;;1873738;75;21140;-44
2022/01/07 03:18:09;;;;;;;7.40;3.77;;;12.50;76.00;;;;;;1872780;75;21029;-45
2022/01/07 03:20:38;;;;;;;8.20;3.95;;;12.50;76.00;;;;;;1872747;75;21107;-45
2022/01/07 03:23:11;;;;;;;7.15;3.95;;;12.50;76.10;;;;;;1872875;75;21093;-44
2022/01/07 03:25:41;;;;;;;7.40;4.10;;;12.40;76.20;;;;;;1872863;76;21417;-44
2022/01/07 03:28:10;;;;;;;6.97;4.03;;;12.40;76.40;;;;;;1872739;77;21053;-45
2022/01/07 03:30:40;;;;;;;9.05;4.42;;;12.40;76.70;;;;;;1872735;76;21033;-45
2022/01/07 03:33:10;;;;;;;7.00;4.37;;;12.40;76.80;;;;;;1872818;76;21091;-45
2022/01/07 03:35:39;;;;;;;6.30;3.42;;;12.40;76.90;;;;;;1872871;77;21107;-45
2022/01/07 03:38:09;;;;;;;6.33;3.98;;;12.40;77.20;;;;;;1872780;75;21091;-46
2022/01/07 03:40:38;;;;;;;8.03;4.28;;;12.40;77.20;;;;;;1872856;75;21089;-44
2022/01/07 03:43:08;;;;;;;5.65;3.27;;;12.50;77.30;;;;;;1872823;75;21097;-45
2022/01/07 03:45:37;;;;;;;8.28;3.95;;;12.50;77.50;;;;;;1873030;75;21091;-45
2022/01/07 03:48:07;;;;;;;9.93;3.90;;;12.50;77.50;;;;;;1872885;76;21076;-46
2022/01/07 03:50:36;;;;;;;6.97;4.08;;;12.50;77.70;;;;;;1872931;75;21037;-44
2022/01/07 03:53:06;;;;;;;7.37;4.60;;;12.50;77.60;;;;;;1872937;75;21034;-44
2022/01/07 03:55:36;;;;;;;11.05;5.15;;;12.50;77.90;;;;;;1872978;75;21026;-47
2022/01/07 03:58:05;;;;;;;7.55;4.62;;;12.50;77.90;;;;;;1872999;77;21108;-45
2022/01/07 04:00:37;;;;;;;8.15;4.92;;;12.50;78.10;;;;;;1872977;75;21559;-45
2022/01/07 04:03:09;;;;;;;7.80;4.58;;;12.50;78.00;;;;;;1872967;75;21475;-45
2022/01/07 04:05:38;;;;;;;6.47;4.42;;;12.50;78.10;;;;;;1872991;77;21089;-45
2022/01/07 04:08:09;;;;;;;6.58;3.70;;;12.40;78.20;;;;;;1872917;75;21085;-45
2022/01/07 04:10:39;;;;;;;9.70;5.05;;;12.40;79.20;;;;;;1872813;76;21030;-45
2022/01/07 04:13:08;;;;;;;6.33;4.17;;;12.40;78.70;;;;;;1872889;76;21060;-45
2022/01/07 04:15:38;;;;;;;7.47;3.45;;;12.40;78.80;;;;;;1872773;75;21363;-45
2022/01/07 04:18:07;;;;;;;10.00;5.10;;;12.30;79.30;;;;;;1872963;75;21034;-45
2022/01/07 04:20:37;;;;;;;8.55;4.42;;;12.30;79.20;;;;;;1872886;75;21088;-46
2022/01/07 04:23:08;;;;;;;7.78;4.70;;;12.30;79.30;;;;;;1872883;75;21037;-45
2022/01/07 04:25:38;;;;;;;11.12;4.87;;;12.30;79.60;;;;;;1872788;75;21037;-44
2022/01/07 04:28:09;;;;;;;7.22;4.35;;;12.30;79.80;;;;;;1872826;75;21127;-45
2022/01/07 04:30:40;;;;;;;8.85;4.78;;;12.30;79.70;;;;;;1872865;76;21072;-45
2022/01/07 04:33:13;;;;;;;6.65;4.55;;;12.20;80.00;;;;;;1872911;75;21026;-45
2022/01/07 04:35:42;;;;;;;6.87;3.77;;;12.30;80.20;;;;;;1872878;75;21500;-45
2022/01/07 04:38:11;;;;;;;9.18;5.10;;;12.20;80.30;;;;;;1872828;76;21038;-45
2022/01/07 04:40:40;;;;;;;7.75;4.28;;;12.20;80.40;;;;;;1872938;75;21038;-45
2022/01/07 04:43:10;;;;;;;7.92;4.15;;;12.20;80.50;;;;;;1872914;75;21009;-44
2022/01/07 04:45:39;;;;;;;13.15;4.58;;;12.20;80.50;;;;;;1872817;76;21033;-45
2022/01/07 04:48:08;;;;;;;9.85;4.70;;;12.20;80.80;;;;;;1872951;76;21099;-45
2022/01/07 04:50:38;;;;;;;10.15;4.47;;;12.10;81.00;;;;;;1872887;76;21081;-44
2022/01/07 04:53:08;;;;;;;6.37;3.67;;;12.10;81.10;;;;;;1872887;76;21150;-45
2022/01/07 04:55:38;;;;;;;6.35;4.05;;;12.10;81.90;;;;;;1872997;77;21033;-45
2022/01/07 04:58:09;;;;;;;9.98;5.00;;;12.10;81.60;;;;;;1872844;75;21041;-45
2022/01/07 05:00:40;;;;;;;9.78;4.47;;;12.10;81.70;;;;;;1872834;75;21030;-46
2022/01/07 05:03:10;;;;;;;8.55;4.65;;;12.10;82.10;;;;;;1872776;75;21041;-44
2022/01/07 05:05:39;;;;;;;9.80;4.80;;;12.10;81.70;;;;;;1873006;75;21064;-45
2022/01/07 05:08:09;;;;;;;9.78;5.30;;;12.10;81.90;;;;;;1872824;75;21002;-45
2022/01/07 05:10:38;;;;;;;9.60;5.25;;;12.10;82.10;;;;;;1872789;75;21101;-46
2022/01/07 05:13:08;;;;;;;8.90;4.10;;;12.10;82.40;;;;;;1872816;75;21104;-44
2022/01/07 05:15:37;;;;;;;7.10;4.92;;;12.10;82.30;;;;;;1880623;76;21137;-44
2022/01/07 05:18:06;;;;;;;8.25;4.97;;;12.00;82.30;;;;;;1891673;75;21032;-46
2022/01/07 05:20:36;;;;;;;9.33;4.87;;;12.10;82.70;;;;;;1891707;76;21048;-45
2022/01/07 05:23:05;;;;;;;11.45;5.92;;;12.00;82.70;;;;;;1891579;76;21036;-45
2022/01/07 05:25:35;;;;;;;11.50;5.67;;;12.00;82.80;;;;;;1891680;76;21032;-45
2022/01/07 05:28:05;;;;;;;12.50;6.40;;;12.00;82.90;;;;;;1891723;76;21082;-45
2022/01/07 05:30:35;;;;;;;9.53;5.45;;;12.00;83.20;;;;;;1891602;75;21047;-46
2022/01/07 05:33:04;;;;;;;7.60;5.00;;;12.00;83.40;;;;;;1891662;76;21039;-46
2022/01/07 05:35:33;;;;;;;6.50;4.97;;;11.90;83.40;;;;;;1891645;76;21036;-45
2022/01/07 05:38:03;;;;;;;11.10;5.87;;;12.00;83.40;;;;;;1891754;75;21060;-45
2022/01/07 05:40:32;;;;;;;15.03;6.47;;;12.00;84.00;;;;;;1891615;75;21024;-45
2022/01/07 05:43:01;;;;;;;11.12;5.65;;;11.90;83.70;;;;;;1891645;76;21458;-46
2022/01/07 05:45:31;;;;;;;8.13;4.90;;;12.00;84.10;;;;;;1891621;76;21098;-45
2022/01/07 05:48:00;;;;;;;6.87;4.17;;;12.00;83.50;;;;;;1891701;75;21024;-45
2022/01/07 05:50:30;;;;;;;11.05;5.05;;;12.00;84.50;;;;;;1891714;76;21032;-46
2022/01/07 05:52:59;;;;;;;7.60;5.20;;;12.00;84.20;;;;;;1891738;76;21035;-45
2022/01/07 05:55:28;;;;;;;12.25;5.08;;;12.00;84.30;;;;;;1891733;76;21071;-46
2022/01/07 05:57:58;;;;;;;10.72;5.67;;;12.10;85.10;;;;;;1891828;75;21003;-46
2022/01/07 06:00:27;;;;;;;9.75;5.58;;;12.10;84.80;;;;;;1891751;75;21027;-45
2022/01/07 06:02:56;;;;;;;9.75;5.70;;;12.10;84.50;;;;;;1891690;76;21086;-46
2022/01/07 06:05:25;;;;;;;10.03;6.58;;;12.10;84.80;;;;;;1891513;76;21020;-45
2022/01/07 06:07:54;;;;;;;10.53;6.12;;;12.10;85.00;;;;;;1891665;75;21474;-48
2022/01/07 06:10:24;;;;;;;8.50;5.58;;;12.10;85.00;;;;;;1891609;76;21487;-45
2022/01/07 06:12:53;;;;;;;9.35;5.25;;;12.10;85.30;;;;;;1891577;76;21119;-45
2022/01/07 06:15:24;;;;;;;10.10;5.37;;;12.20;85.50;;;;;;1890010;76;21048;-45
2022/01/07 06:17:54;;;;;;;13.43;7.22;;;12.10;85.20;;;;;;1872840;77;21029;-45
2022/01/07 06:20:23;;;;;;;16.40;7.72;;;12.20;85.20;;;;;;1872902;75;21033;-46
2022/01/07 06:22:53;;;;;;;15.23;6.72;;;12.30;85.60;;;;;;1872848;75;21050;-45
2022/01/07 06:25:22;;;;;;;13.18;6.83;;;12.30;86.20;;;;;;1872847;76;21037;-46
2022/01/07 06:27:52;;;;;;;12.23;7.00;;;12.30;86.00;;;;;;1872811;75;21025;-45
2022/01/07 06:30:21;;;;;;;12.40;7.08;;;12.30;85.60;;;;;;1872893;75;21038;-46
2022/01/07 06:32:50;;;;;;;14.75;8.25;;;12.30;85.30;;;;;;1872945;76;21034;-46
2022/01/07 06:35:19;;;;;;;14.33;8.75;;;12.30;85.50;;;;;;1872838;75;21042;-45
2022/01/07 06:37:48;;;;;;;13.35;6.97;;;12.30;85.80;;;;;;1872861;75;21499;-45
2022/01/07 06:40:18;;;;;;;18.10;8.23;;;12.20;86.50;;;;;;1872892;76;21045;-45
2022/01/07 06:42:47;;;;;;;14.35;8.08;;;12.20;86.00;;;;;;1872869;75;21053;-45
2022/01/07 06:45:16;;;;;;;17.95;8.68;;;12.20;86.30;;;;;;1873000;75;21030;-46
2022/01/07 06:47:46;;;;;;;17.70;8.50;;;12.20;86.10;;;;;;1872920;75;21005;-46
2022/01/07 06:50:15;;;;;;;18.77;8.95;;;12.20;86.20;;;;;;1873042;76;21033;-46
2022/01/07 06:52:44;;;;;;;12.28;8.13;;;12.20;86.20;;;;;;1872928;75;21005;-45
2022/01/07 06:55:14;;;;;;;20.57;11.25;;;12.20;86.50;;;;;;1872834;76;21034;-45
2022/01/07 06:57:43;;;;;;;20.80;9.40;;;12.20;86.20;;;;;;1872967;77;21037;-46
2022/01/07 07:00:13;;;;;;;15.93;9.28;;;12.20;86.00;;;;;;1872932;77;21037;-46
2022/01/07 07:02:42;;;;;;;17.52;8.05;;;12.20;85.90;;;;;;1872743;75;21037;-45
2022/01/07 07:05:12;;;;;;;20.25;8.73;;;12.20;86.00;;;;;;1872838;76;21029;-44
2022/01/07 07:07:41;;;;;;;15.00;8.75;;;12.20;86.00;;;;;;1872924;77;21111;-46
2022/01/07 07:10:11;;;;;;;78.57;31.45;;;12.30;86.50;;;;;;1872826;77;21046;-45
2022/01/07 07:12:40;;;;;;;38.38;16.70;;;12.30;86.60;;;;;;1872816;75;21092;-46
2022/01/07 07:15:10;;;;;;;52.93;20.37;;;12.10;85.70;;;;;;1872919;75;21472;-46
2022/01/07 07:17:41;;;;;;;37.78;16.93;;;12.00;85.50;;;;;;1872921;75;21120;-45
2022/01/07 07:20:13;;;;;;;43.68;19.80;;;11.80;85.60;;;;;;1872912;75;21045;-45
2022/01/07 07:22:42;;;;;;;35.43;17.95;;;11.70;85.80;;;;;;1872889;77;21026;-45
2022/01/07 07:25:11;;;;;;;38.88;18.48;;;11.60;85.90;;;;;;1872901;76;21030;-46
2022/01/07 07:27:41;;;;;;;37.23;16.85;;;11.50;85.90;;;;;;1872913;77;21081;-46
2022/01/07 07:30:12;;;;;;;36.28;16.12;;;11.40;86.00;;;;;;1872935;77;21037;-45
2022/01/07 07:32:41;;;;;;;42.78;18.35;;;11.30;85.90;;;;;;1872926;77;21033;-45
2022/01/07 07:37:51;;;;;;;43.75;18.30;;;11.10;86.10;;;;;;1872890;75;21049;-47
2022/01/07 07:40:21;;;;;;;28.62;15.55;;;11.00;86.30;;;;;;1872848;77;21014;-47
2022/01/07 07:42:51;;;;;;;45.52;22.13;;;10.90;86.60;;;;;;1872668;75;21026;-45
2022/01/07 07:45:21;;;;;;;41.37;17.92;;;10.80;86.70;;;;;;1872886;77;21029;-46
2022/01/07 07:47:50;;;;;;;42.67;20.23;;;10.80;87.40;;;;;;1872988;76;21559;-45
2022/01/07 07:50:20;;;;;;;41.28;19.55;;;10.80;86.70;;;;;;1872840;75;21088;-45
2022/01/07 07:52:49;;;;;;;43.95;18.95;;;10.70;87.00;;;;;;1873206;76;21077;-46
2022/01/07 07:55:18;;;;;;;42.70;20.27;;;10.70;86.90;;;;;;1872949;76;21397;-46
2022/01/07 07:57:48;;;;;;;42.58;19.70;;;10.70;86.90;;;;;;1872883;77;21033;-46
2022/01/07 08:00:17;;;;;;;41.95;20.02;;;10.70;86.90;;;;;;1872900;75;21013;-46
2022/01/07 08:02:46;;;;;;;40.05;19.85;;;10.70;86.90;;;;;;1872907;77;21011;-45
2022/01/07 08:05:16;;;;;;;39.13;17.75;;;10.60;86.80;;;;;;1872800;75;21115;-46
2022/01/07 08:07:45;;;;;;;37.65;17.17;;;10.60;86.70;;;;;;1872791;75;21029;-46
2022/01/07 08:10:21;;;;;;;35.68;17.67;;;10.60;87.00;;;;;;1872710;77;21010;-46
2022/01/07 08:13:03;;;;;;;36.35;16.87;;;10.60;87.00;;;;;;1871899;76;21053;-46
2022/01/07 08:18:10;;;;;;;29.02;14.05;;;10.50;87.20;;;;;;1886235;76;21143;-47
2022/01/07 08:20:40;;;;;;;36.20;18.27;;;10.50;87.20;;;;;;1891511;75;21064;-45
2022/01/07 08:23:10;;;;;;;34.73;16.77;;;10.50;87.30;;;;;;1891360;76;21106;-45
2022/01/07 08:25:39;;;;;;;35.75;16.70;;;10.60;87.10;;;;;;1891689;76;21079;-45
2022/01/07 08:28:09;;;;;;;23.73;13.35;;;10.60;86.90;;;;;;1891491;76;21102;-46
2022/01/07 08:30:59;;;;;;;35.20;15.68;;;10.60;86.90;;;;;;1891586;76;21008;-45
2022/01/07 08:35:57;;;;;;;33.42;15.03;;;10.60;86.60;;;;;;1891766;76;21048;-45
2022/01/07 08:38:27;;;;;;;35.70;15.40;;;10.50;86.40;;;;;;1891634;75;21114;-46
2022/01/07 08:40:56;;;;;;;35.23;15.20;;;10.50;86.40;;;;;;1891705;76;21036;-46
2022/01/07 08:43:25;;;;;;;87.12;39.40;;;10.50;86.70;;;;;;1891437;76;21004;-47
2022/01/07 08:45:55;;;;;;;46.05;23.20;;;10.40;86.40;;;;;;1891622;76;21536;-47
2022/01/07 08:48:25;;;;;;;25.65;14.40;;;10.40;87.10;;;;;;1891462;75;21160;-46
2022/01/07 08:50:55;;;;;;;32.58;17.65;;;10.40;86.20;;;;;;1891641;75;21043;-45
2022/01/07 08:53:24;;;;;;;29.67;15.55;;;10.40;86.10;;;;;;1891495;76;21056;-45
2022/01/07 08:55:54;;;;;;;21.65;12.45;;;10.40;85.90;;;;;;1891612;76;21098;-46
2022/01/07 08:58:23;;;;;;;30.82;15.30;;;10.30;85.80;;;;;;1891522;76;21114;-45
2022/01/07 09:00:53;;;;;;;25.80;12.93;;;10.30;86.00;;;;;;1891733;76;21024;-46
2022/01/07 09:03:22;;;;;;;34.27;16.73;;;10.30;85.90;;;;;;1891520;76;21098;-46
2022/01/07 09:05:51;;;;;;;31.35;15.88;;;10.30;85.70;;;;;;1891699;76;21044;-47
2022/01/07 09:08:22;;;;;;;31.82;14.85;;;10.20;85.40;;;;;;1891869;76;21082;-45
2022/01/07 09:10:51;;;;;;;30.97;15.25;;;10.20;84.70;;;;;;1891586;76;21098;-45
2022/01/07 09:13:20;;;;;;;27.10;14.20;;;10.10;84.70;;;;;;1891617;76;21079;-45
2022/01/07 09:15:50;;;;;;;31.68;16.07;;;10.00;85.10;;;;;;1891487;76;21145;-46
2022/01/07 09:18:20;;;;;;;34.78;17.98;;;10.00;85.30;;;;;;1891545;76;21028;-45
2022/01/07 09:20:50;;;;;;;31.35;18.07;;;9.90;84.80;;;;;;1891573;76;21549;-49
2022/01/07 09:23:19;;;;;;;29.05;15.38;;;9.90;85.00;;;;;;1891567;75;21041;-45
2022/01/07 09:25:49;;;;;;;23.40;11.08;;;9.90;84.90;;;;;;1891699;76;21114;-45
2022/01/07 09:28:18;;;;;;;36.20;15.13;;;9.80;85.10;;;;;;1891555;76;21008;-45
2022/01/07 09:30:48;;;;;;;40.75;20.05;;;9.80;85.50;;;;;;1891580;75;21083;-45
2022/01/07 09:33:17;;;;;;;43.98;19.07;;;9.80;85.30;;;;;;1891616;76;21101;-45
2022/01/07 09:35:46;;;;;;;35.08;16.40;;;9.70;85.10;;;;;;1891564;76;21031;-45
2022/01/07 09:38:16;;;;;;;43.10;16.93;;;9.60;85.30;;;;;;1891636;76;21040;-45
2022/01/07 09:40:45;;;;;;;32.78;17.45;;;9.70;85.10;;;;;;1891548;76;21039;-45
2022/01/07 09:43:15;;;;;;;50.48;22.15;;;9.60;84.60;;;;;;1891522;76;21040;-45
2022/01/07 09:45:45;;;;;;;31.37;15.00;;;9.50;84.90;;;;;;1891642;76;21130;-45
2022/01/07 09:48:14;;;;;;;22.40;14.45;;;9.40;84.80;;;;;;1891648;76;21036;-45
2022/01/07 09:50:45;;;;;;;24.05;11.88;;;9.40;84.60;;;;;;1891675;76;21110;-45
2022/01/07 09:53:15;;;;;;;32.35;14.35;;;9.30;84.60;;;;;;1891569;76;21028;-46
2022/01/07 09:55:45;;;;;;;20.52;12.10;;;9.20;84.70;;;;;;1891680;76;21134;-45
2022/01/07 09:58:15;;;;;;;42.27;20.08;;;9.10;84.60;;;;;;1891573;76;21028;-45
2022/01/07 10:00:46;;;;;;;38.28;16.45;;;9.10;84.20;;;;;;1891566;75;21101;-45
2022/01/07 10:03:18;;;;;;;25.12;12.93;;;8.90;84.20;;;;;;1891504;76;21055;-45
2022/01/07 10:05:49;;;;;;;27.67;13.08;;;8.80;84.40;;;;;;1891520;76;21105;-46
2022/01/07 10:08:25;;;;;;;23.45;13.13;;;8.80;84.70;;;;;;1891530;76;21094;-45
2022/01/07 10:11:14;;;;;;;39.38;17.37;;;8.70;84.80;;;;;;1891599;76;21004;-46
2022/01/07 10:13:46;;;;;;;51.23;20.45;;;8.70;85.60;;;;;;1881389;76;21039;-44
2022/01/07 10:16:20;;;;;;;39.03;16.50;;;8.70;84.80;;;;;;1891599;75;21533;-44
2022/01/07 10:18:50;;;;;;;48.53;20.67;;;8.60;84.50;;;;;;1883069;76;21186;-44
2022/01/07 10:21:22;;;;;;;21.60;12.40;;;8.60;84.30;;;;;;1872846;77;21498;-45
2022/01/07 10:23:54;;;;;;;13.58;7.72;;;8.60;84.30;;;;;;1872783;77;21006;-45
2022/01/07 10:26:24;;;;;;;17.20;10.28;;;8.60;84.30;;;;;;1871118;76;21057;-44
2022/01/07 10:28:54;;;;;;;33.98;13.40;;;8.50;84.30;;;;;;1872919;75;21538;-44
2022/01/07 10:31:25;;;;;;;16.62;10.30;;;8.50;84.40;;;;;;1872831;77;21315;-44
2022/01/07 10:33:54;;;;;;;14.58;8.40;;;8.60;84.50;;;;;;1872833;77;21038;-44
2022/01/07 10:36:29;;;;;;;15.85;10.00;;;8.60;84.10;;;;;;1872929;77;21037;-44
2022/01/07 10:39:00;;;;;;;;;;;8.60;84.00;;;;;;1875721;77;21530;-44
2022/01/07 10:41:28;;;;;;;19.95;11.35;;;8.50;84.10;;;;;;1872802;75;20114;-44
2022/01/07 10:44:03;;;;;;;18.50;10.55;;;8.50;84.10;;;;;;1872918;75;21037;-44
2022/01/07 10:46:32;;;;;;;20.65;11.45;;;8.50;84.30;;;;;;1872949;76;21033;-43
2022/01/07 10:49:04;;;;;;;22.73;12.58;;;8.50;84.30;;;;;;1872703;77;21034;-43
2022/01/07 10:51:37;;;;;;;18.23;11.80;;;8.50;84.10;;;;;;1872721;76;21006;-44
2022/01/07 10:54:10;;;;;;;16.85;10.05;;;8.50;83.90;;;;;;1872832;77;21084;-45
2022/01/07 10:56:47;;;;;;;23.30;12.73;;;8.50;83.90;;;;;;1871899;75;21045;-44
2022/01/07 10:59:19;;;;;;;23.50;10.75;;;8.50;84.00;;;;;;1872777;76;21472;-44
2022/01/07 11:01:58;;;;;;;21.37;12.85;;;8.50;84.00;;;;;;1872868;76;21069;-47
2022/01/07 11:04:33;;;;;;;15.85;10.20;;;8.50;84.30;;;;;;1872868;76;21174;-44
2022/01/07 11:07:03;;;;;;;18.25;9.93;;;8.50;84.10;;;;;;1872363;76;21579;-45
2022/01/07 11:09:30;;;;;;;15.50;9.35;;;8.60;84.00;;;;;;1872598;76;21065;-44
2022/01/07 11:12:02;;;;;;;21.87;10.53;;;8.50;83.80;;;;;;1872860;76;21025;-44
2022/01/07 11:14:35;;;;;;;16.17;10.13;;;8.50;83.60;;;;;;1872864;77;21103;-44
2022/01/07 11:17:07;;;;;;;16.10;9.65;;;8.50;83.80;;;;;;1872875;75;21017;-45
2022/01/07 11:19:38;;;;;;;20.32;9.75;;;8.60;83.80;;;;;;1872541;76;21531;-44
2022/01/07 11:22:11;;;;;;;18.12;10.45;;;8.60;83.80;;;;;;1872878;75;21096;-44
2022/01/07 11:24:53;;;;;;;13.53;8.65;;;8.60;83.60;;;;;;1872789;75;21471;-45
2022/01/07 11:27:25;;;;;;;16.12;9.93;;;8.60;83.40;;;;;;1870566;75;21100;-45
2022/01/07 11:30:12;;;;;;;19.65;10.65;;;8.60;83.80;;;;;;1872834;76;21033;-45
2022/01/07 11:32:44;;;;;;;18.82;11.18;;;8.70;83.60;;;;;;1872780;75;21057;-44
2022/01/07 11:35:23;;;;;;;20.72;10.40;;;8.70;83.60;;;;;;1872803;76;21049;-44
2022/01/07 11:37:54;;;;;;;23.80;12.13;;;8.70;83.20;;;;;;1872861;77;21011;-44
2022/01/07 11:40:43;;;;;;;18.27;9.83;;;8.80;83.70;;;;;;1872806;75;21038;-45
2022/01/07 11:43:21;;;;;;;19.42;7.35;;;8.80;83.30;;;;;;1872744;77;21092;-44
2022/01/07 11:45:51;;;;;;;19.45;10.75;;;8.80;82.60;;;;;;1872769;76;21093;-44
2022/01/07 11:48:27;;;;;;;23.27;9.93;;;8.80;82.70;;;;;;1872870;76;21043;-45
2022/01/07 11:51:01;;;;;;;17.62;11.05;;;8.70;82.90;;;;;;1872772;76;21053;-44
2022/01/07 11:53:51;;;;;;;23.12;11.88;;;8.70;82.90;;;;;;1872853;75;21061;-45
2022/01/07 11:56:27;;;;;;;26.82;13.13;;;8.80;83.00;;;;;;1872873;75;21103;-44
2022/01/07 11:58:58;;;;;;;33.05;14.60;;;8.70;82.90;;;;;;1872846;76;21041;-44
2022/01/07 12:01:35;;;;;;;28.90;14.85;;;8.70;82.80;;;;;;1870722;76;21198;-44
2022/01/07 12:04:16;;;;;;;34.98;15.03;;;8.70;83.10;;;;;;1873025;75;21053;-45
2022/01/07 12:06:46;;;;;;;25.00;11.68;;;8.60;83.10;;;;;;1872215;76;21054;-44
2022/01/07 12:09:25;;;;;;;23.30;11.75;;;8.60;82.90;;;;;;1872861;75;21029;-44
2022/01/07 12:12:03;;;;;;;36.05;17.20;;;8.60;82.90;;;;;;1871779;76;21057;-45
2022/01/07 12:14:41;;;;;;;33.98;14.93;;;8.50;83.00;;;;;;1872549;75;21053;-46
2022/01/07 12:17:16;;;;;;;27.50;13.60;;;8.50;83.10;;;;;;1871897;75;21065;-44
2022/01/07 12:19:52;;;;;;;33.23;15.65;;;8.50;83.20;;;;;;1872981;75;21069;-44
2022/01/07 12:22:22;;;;;;;32.98;14.83;;;8.50;83.20;;;;;;1872994;77;21042;-44
2022/01/07 12:24:53;;;;;;;29.87;14.98;;;8.50;83.10;;;;;;1873090;75;21069;-44
2022/01/07 12:27:24;;;;;;;31.23;14.28;;;8.50;83.30;;;;;;1872396;76;21073;-45
2022/01/07 12:29:55;;;;;;;31.42;15.13;;;8.50;83.20;;;;;;1872997;77;21095;-45
2022/01/07 12:32:36;;;;;;;30.50;15.20;;;8.50;83.30;;;;;;1873031;75;21617;-45
2022/01/07 12:35:07;;;;;;;38.75;15.88;;;8.50;83.00;;;;;;1873023;77;21542;-49
2022/01/07 12:37:37;;;;;;;34.15;16.10;;;8.40;82.60;;;;;;1872992;75;21037;-47
2022/01/07 12:40:09;;;;;;;41.28;17.37;;;8.40;82.70;;;;;;1873003;76;21037;-48
2022/01/07 12:42:43;;;;;;;44.77;17.67;;;8.40;83.00;;;;;;1872966;76;21178;-48
2022/01/07 12:45:17;;;;;;;39.45;17.65;;;8.40;83.10;;;;;;1873005;75;21144;-45
2022/01/07 12:47:47;;;;;;;39.15;17.10;;;8.40;83.10;;;;;;1873141;77;21091;-45
2022/01/07 12:50:17;;;;;;;36.93;17.27;;;8.40;82.90;;;;;;1872980;76;21077;-45
2022/01/07 12:52:46;;;;;;;44.95;17.10;;;8.40;82.90;;;;;;1872913;77;21227;-46
2022/01/07 12:55:18;;;;;;;40.43;17.05;;;8.40;82.90;;;;;;1872932;75;21033;-45
2022/01/07 12:57:59;;;;;;;42.78;17.73;;;8.40;83.10;;;;;;1872973;76;21025;-45
2022/01/07 13:00:29;;;;;;;38.53;19.10;;;8.40;83.10;;;;;;1872974;77;21037;-45
2022/01/07 13:03:06;;;;;;;45.25;17.98;;;8.40;83.40;;;;;;1872931;76;21025;-45
2022/01/07 13:05:41;;;;;;;38.90;16.95;;;8.50;83.20;;;;;;1872934;77;21045;-45